sensor_id;sensor_type;location;lat;lon;timestamp;pressure;altitude;pressure_sealevel;temperature;humidity
70690;BME280;58267;51.156;17.044;2023-05-23T00:00:29;100044.49;;;22.72;27.46
70690;BME280;58267;51.156;17.044;2023-05-23T00:02:55;100040.83;;;22.90;26.80
70690;BME280;58267;51.156;17.044;2023-05-23T00:05:20;100038.50;;;22.39;26.44
70690;BME280;58267;51.156;17.044;2023-05-23T00:07:46;100037.16;;;22.24;27.06
70690;BME280;58267;51.156;17.044;2023-05-23T00:10:12;100036.98;;;22.65;27.27
70690;BME280;58267;51.156;17.044;2023-05-23T00:12:37;100033.85;;;22.71;26.95
70690;BME280;58267;51.156;17.044;2023-05-23T00:15:02;100030.78;;;22.90;25.85
70690;BME280;58267;51.156;17.044;2023-05-23T00:17:27;100030.10;;;21.19;27.31
70690;BME280;58267;51.156;17.044;2023-05-23T00:19:52;100030.59;;;20.18;28.35
70690;BME280;58267;51.156;17.044;2023-05-23T00:22:18;100028.51;;;19.96;29.08
70690;BME280;58267;51.156;17.044;2023-05-23T00:24:43;100029.44;;;19.43;29.82
70690;BME280;58267;51.156;17.044;2023-05-23T00:27:09;100030.14;;;18.88;30.96
70690;BME280;58267;51.156;17.044;2023-05-23T00:29:34;100034.94;;;18.79;31.35
70690;BME280;58267;51.156;17.044;2023-05-23T00:31:59;100034.01;;;18.37;31.95
70690;BME280;58267;51.156;17.044;2023-05-23T00:34:25;100035.67;;;18.25;32.09
70690;BME280;58267;51.156;17.044;2023-05-23T00:36:50;100030.52;;;17.85;32.36
70690;BME280;58267;51.156;17.044;2023-05-23T00:39:15;100024.00;;;17.95;32.41
70690;BME280;58267;51.156;17.044;2023-05-23T00:41:40;100024.77;;;17.69;32.87
70690;BME280;58267;51.156;17.044;2023-05-23T00:44:06;100022.28;;;17.76;33.18
70690;BME280;58267;51.156;17.044;2023-05-23T00:46:31;100019.78;;;17.59;33.19
70690;BME280;58267;51.156;17.044;2023-05-23T00:48:57;100023.33;;;17.47;33.35
70690;BME280;58267;51.156;17.044;2023-05-23T00:51:22;100021.44;;;17.69;33.07
70690;BME280;58267;51.156;17.044;2023-05-23T00:53:48;100022.53;;;17.55;33.42
70690;BME280;58267;51.156;17.044;2023-05-23T00:56:14;100022.13;;;17.30;33.34
70690;BME280;58267;51.156;17.044;2023-05-23T00:58:40;100020.90;;;17.68;33.19
70690;BME280;58267;51.156;17.044;2023-05-23T01:01:05;100018.64;;;17.59;32.80
70690;BME280;58267;51.156;17.044;2023-05-23T01:03:30;100016.20;;;17.69;33.20
70690;BME280;58267;51.156;17.044;2023-05-23T01:05:56;100017.75;;;17.77;33.55
70690;BME280;58267;51.156;17.044;2023-05-23T01:08:22;100015.28;;;17.27;33.92
70690;BME280;58267;51.156;17.044;2023-05-23T01:10:47;100011.17;;;17.46;33.91
70690;BME280;58267;51.156;17.044;2023-05-23T01:13:20;100008.49;;;16.86;33.99
70690;BME280;58267;51.156;17.044;2023-05-23T01:15:43;100011.30;;;17.37;34.13
70690;BME280;58267;51.156;17.044;2023-05-23T01:18:09;100011.79;;;17.18;34.02
70690;BME280;58267;51.156;17.044;2023-05-23T01:20:34;100016.58;;;17.17;33.88
70690;BME280;58267;51.156;17.044;2023-05-23T01:23:07;100014.92;;;17.04;34.04
70690;BME280;58267;51.156;17.044;2023-05-23T01:25:29;100014.76;;;17.22;34.24
70690;BME280;58267;51.156;17.044;2023-05-23T01:27:52;100012.01;;;17.28;33.63
70690;BME280;58267;51.156;17.044;2023-05-23T01:30:12;100013.95;;;17.33;33.50
70690;BME280;58267;51.156;17.044;2023-05-23T01:32:38;100012.82;;;17.31;33.90
70690;BME280;58267;51.156;17.044;2023-05-23T01:35:02;100011.58;;;17.05;33.83
70690;BME280;58267;51.156;17.044;2023-05-23T01:37:28;100010.41;;;17.32;33.81
70690;BME280;58267;51.156;17.044;2023-05-23T01:39:53;100009.18;;;16.98;33.96
70690;BME280;58267;51.156;17.044;2023-05-23T01:42:19;100009.15;;;17.27;34.21
70690;BME280;58267;51.156;17.044;2023-05-23T01:44:45;100007.25;;;16.95;34.33
70690;BME280;58267;51.156;17.044;2023-05-23T01:47:11;100005.47;;;16.99;34.59
70690;BME280;58267;51.156;17.044;2023-05-23T01:49:37;99997.40;;;16.76;34.84
70690;BME280;58267;51.156;17.044;2023-05-23T01:52:02;99995.46;;;16.53;34.85
70690;BME280;58267;51.156;17.044;2023-05-23T01:54:27;99994.87;;;16.47;34.95
70690;BME280;58267;51.156;17.044;2023-05-23T01:56:53;99995.18;;;16.76;34.81
70690;BME280;58267;51.156;17.044;2023-05-23T01:59:18;99996.23;;;16.85;34.65
70690;BME280;58267;51.156;17.044;2023-05-23T02:01:43;99996.80;;;16.59;34.78
70690;BME280;58267;51.156;17.044;2023-05-23T02:04:08;99988.25;;;16.80;34.85
70690;BME280;58267;51.156;17.044;2023-05-23T02:06:34;99986.21;;;16.43;35.05
70690;BME280;58267;51.156;17.044;2023-05-23T02:09:00;99982.64;;;16.58;35.15
70690;BME280;58267;51.156;17.044;2023-05-23T02:11:25;99976.82;;;16.22;35.34
70690;BME280;58267;51.156;17.044;2023-05-23T02:13:51;99973.81;;;16.58;35.43
70690;BME280;58267;51.156;17.044;2023-05-23T02:16:16;99971.69;;;16.22;35.56
70690;BME280;58267;51.156;17.044;2023-05-23T02:18:42;99971.60;;;16.43;35.72
70690;BME280;58267;51.156;17.044;2023-05-23T02:21:07;99972.97;;;16.41;35.84
70690;BME280;58267;51.156;17.044;2023-05-23T02:23:32;99971.12;;;15.86;35.94
70690;BME280;58267;51.156;17.044;2023-05-23T02:25:58;99967.90;;;16.11;35.63
70690;BME280;58267;51.156;17.044;2023-05-23T02:28:24;99968.02;;;15.99;35.85
70690;BME280;58267;51.156;17.044;2023-05-23T02:30:50;99964.79;;;16.62;35.64
70690;BME280;58267;51.156;17.044;2023-05-23T02:33:15;99962.29;;;16.34;35.77
70690;BME280;58267;51.156;17.044;2023-05-23T02:35:41;99959.33;;;16.35;35.68
70690;BME280;58267;51.156;17.044;2023-05-23T02:38:06;99957.02;;;16.10;35.64
70690;BME280;58267;51.156;17.044;2023-05-23T02:40:32;99955.29;;;16.15;35.92
70690;BME280;58267;51.156;17.044;2023-05-23T02:42:57;99954.78;;;15.79;36.01
70690;BME280;58267;51.156;17.044;2023-05-23T02:45:23;99957.51;;;16.18;35.91
70690;BME280;58267;51.156;17.044;2023-05-23T02:47:48;99958.97;;;15.94;35.95
70690;BME280;58267;51.156;17.044;2023-05-23T02:50:13;99961.73;;;15.66;36.31
70690;BME280;58267;51.156;17.044;2023-05-23T02:52:39;99962.02;;;16.05;36.13
70690;BME280;58267;51.156;17.044;2023-05-23T02:55:05;99959.66;;;16.02;36.08
70690;BME280;58267;51.156;17.044;2023-05-23T02:57:30;99956.99;;;15.79;36.50
70690;BME280;58267;51.156;17.044;2023-05-23T02:59:55;99953.65;;;16.14;36.38
70690;BME280;58267;51.156;17.044;2023-05-23T03:02:21;99951.16;;;15.87;36.41
70690;BME280;58267;51.156;17.044;2023-05-23T03:04:46;99949.04;;;16.03;36.17
70690;BME280;58267;51.156;17.044;2023-05-23T03:07:12;99946.28;;;16.09;36.42
70690;BME280;58267;51.156;17.044;2023-05-23T03:09:38;99940.22;;;15.55;36.83
70690;BME280;58267;51.156;17.044;2023-05-23T03:12:04;99937.78;;;15.74;36.78
70690;BME280;58267;51.156;17.044;2023-05-23T03:14:28;99937.79;;;15.41;36.95
70690;BME280;58267;51.156;17.044;2023-05-23T03:16:54;99935.40;;;15.67;36.83
70690;BME280;58267;51.156;17.044;2023-05-23T03:19:19;99936.12;;;15.69;36.85
70690;BME280;58267;51.156;17.044;2023-05-23T03:21:44;99933.61;;;15.75;36.87
70690;BME280;58267;51.156;17.044;2023-05-23T03:24:10;99929.98;;;15.75;36.93
70690;BME280;58267;51.156;17.044;2023-05-23T03:26:35;99928.91;;;15.72;37.12
70690;BME280;58267;51.156;17.044;2023-05-23T03:29:01;99928.54;;;15.81;37.03
70690;BME280;58267;51.156;17.044;2023-05-23T03:31:26;99927.06;;;15.83;37.05
70690;BME280;58267;51.156;17.044;2023-05-23T03:33:52;99928.77;;;15.72;36.89
70690;BME280;58267;51.156;17.044;2023-05-23T03:36:17;99926.08;;;15.91;37.05
70690;BME280;58267;51.156;17.044;2023-05-23T03:38:44;99925.93;;;15.90;37.14
70690;BME280;58267;51.156;17.044;2023-05-23T03:41:09;99921.93;;;15.93;37.19
70690;BME280;58267;51.156;17.044;2023-05-23T03:43:35;99925.55;;;15.70;37.24
70690;BME280;58267;51.156;17.044;2023-05-23T03:46:01;99925.88;;;15.88;37.10
70690;BME280;58267;51.156;17.044;2023-05-23T03:48:26;99923.34;;;15.84;37.35
70690;BME280;58267;51.156;17.044;2023-05-23T03:50:51;99923.71;;;16.21;37.16
70690;BME280;58267;51.156;17.044;2023-05-23T03:53:17;99923.72;;;15.87;37.49
70690;BME280;58267;51.156;17.044;2023-05-23T03:55:43;99925.41;;;16.17;37.28
70690;BME280;58267;51.156;17.044;2023-05-23T03:58:08;99925.83;;;16.38;36.96
70690;BME280;58267;51.156;17.044;2023-05-23T04:00:34;99924.97;;;16.10;36.65
70690;BME280;58267;51.156;17.044;2023-05-23T04:02:59;99924.93;;;16.52;37.01
70690;BME280;58267;51.156;17.044;2023-05-23T04:05:24;99926.00;;;16.35;37.15
70690;BME280;58267;51.156;17.044;2023-05-23T04:07:50;99924.17;;;16.47;37.00
70690;BME280;58267;51.156;17.044;2023-05-23T04:10:16;99922.30;;;16.47;36.65
70690;BME280;58267;51.156;17.044;2023-05-23T04:12:42;99923.86;;;16.69;37.02
70690;BME280;58267;51.156;17.044;2023-05-23T04:15:08;99922.15;;;16.59;36.69
70690;BME280;58267;51.156;17.044;2023-05-23T04:17:33;99921.60;;;16.58;36.84
70690;BME280;58267;51.156;17.044;2023-05-23T04:19:58;99922.83;;;16.52;36.73
70690;BME280;58267;51.156;17.044;2023-05-23T04:22:24;99920.89;;;16.85;36.68
70690;BME280;58267;51.156;17.044;2023-05-23T04:24:49;99915.13;;;16.73;36.73
70690;BME280;58267;51.156;17.044;2023-05-23T04:27:15;99911.57;;;16.87;36.80
70690;BME280;58267;51.156;17.044;2023-05-23T04:29:40;99913.42;;;16.99;36.86
70690;BME280;58267;51.156;17.044;2023-05-23T04:32:06;99912.52;;;17.13;36.48
70690;BME280;58267;51.156;17.044;2023-05-23T04:34:32;99917.70;;;17.24;36.41
70690;BME280;58267;51.156;17.044;2023-05-23T04:36:57;99917.08;;;17.28;36.43
70690;BME280;58267;51.156;17.044;2023-05-23T04:39:23;99914.00;;;16.82;36.49
70690;BME280;58267;51.156;17.044;2023-05-23T04:41:49;99911.26;;;17.50;36.15
70690;BME280;58267;51.156;17.044;2023-05-23T04:44:14;99904.13;;;17.66;35.50
70690;BME280;58267;51.156;17.044;2023-05-23T04:46:40;99896.31;;;17.43;35.88
70690;BME280;58267;51.156;17.044;2023-05-23T04:49:05;99890.46;;;17.49;36.05
70690;BME280;58267;51.156;17.044;2023-05-23T04:51:30;99890.20;;;17.47;36.20
70690;BME280;58267;51.156;17.044;2023-05-23T04:53:55;99887.33;;;17.89;35.89
70690;BME280;58267;51.156;17.044;2023-05-23T04:56:21;99885.56;;;17.80;35.84
70690;BME280;58267;51.156;17.044;2023-05-23T04:58:46;99886.18;;;17.85;35.65
70690;BME280;58267;51.156;17.044;2023-05-23T05:01:12;99887.69;;;17.77;35.96
70690;BME280;58267;51.156;17.044;2023-05-23T05:03:38;99886.91;;;17.75;35.57
70690;BME280;58267;51.156;17.044;2023-05-23T05:06:03;99884.22;;;17.96;35.43
70690;BME280;58267;51.156;17.044;2023-05-23T05:08:28;99878.48;;;18.31;35.49
70690;BME280;58267;51.156;17.044;2023-05-23T05:10:54;99873.00;;;18.40;35.14
70690;BME280;58267;51.156;17.044;2023-05-23T05:13:20;99871.24;;;17.99;35.18
70690;BME280;58267;51.156;17.044;2023-05-23T05:15:45;99869.05;;;18.51;35.18
70690;BME280;58267;51.156;17.044;2023-05-23T05:18:11;99870.04;;;18.75;34.88
70690;BME280;58267;51.156;17.044;2023-05-23T05:20:36;99871.70;;;18.80;34.74
70690;BME280;58267;51.156;17.044;2023-05-23T05:23:02;99870.39;;;18.70;33.96
70690;BME280;58267;51.156;17.044;2023-05-23T05:25:27;99871.41;;;18.82;34.13
70690;BME280;58267;51.156;17.044;2023-05-23T05:27:53;99872.09;;;19.48;33.76
70690;BME280;58267;51.156;17.044;2023-05-23T05:30:18;99872.71;;;19.23;33.27
70690;BME280;58267;51.156;17.044;2023-05-23T05:32:44;99873.04;;;19.60;33.07
70690;BME280;58267;51.156;17.044;2023-05-23T05:35:10;99873.46;;;19.76;32.90
70690;BME280;58267;51.156;17.044;2023-05-23T05:37:35;99873.23;;;19.49;32.50
70690;BME280;58267;51.156;17.044;2023-05-23T05:40:01;99870.28;;;19.83;32.39
70690;BME280;58267;51.156;17.044;2023-05-23T05:42:26;99870.63;;;19.69;32.77
70690;BME280;58267;51.156;17.044;2023-05-23T05:44:51;99866.07;;;19.80;32.81
70690;BME280;58267;51.156;17.044;2023-05-23T05:47:17;99863.52;;;19.64;32.75
70690;BME280;58267;51.156;17.044;2023-05-23T05:49:42;99865.81;;;20.27;32.44
70690;BME280;58267;51.156;17.044;2023-05-23T05:52:08;99867.18;;;19.96;32.16
70690;BME280;58267;51.156;17.044;2023-05-23T05:54:34;99867.89;;;19.85;32.59
70690;BME280;58267;51.156;17.044;2023-05-23T05:57:00;99862.43;;;19.96;32.22
70690;BME280;58267;51.156;17.044;2023-05-23T05:59:25;99868.05;;;20.19;32.32
70690;BME280;58267;51.156;17.044;2023-05-23T06:01:51;99865.79;;;20.43;32.11
70690;BME280;58267;51.156;17.044;2023-05-23T06:04:17;99864.77;;;20.32;32.04
70690;BME280;58267;51.156;17.044;2023-05-23T06:06:42;99860.53;;;20.41;32.08
70690;BME280;58267;51.156;17.044;2023-05-23T06:09:08;99857.50;;;20.44;32.08
70690;BME280;58267;51.156;17.044;2023-05-23T06:11:33;99860.43;;;20.81;31.79
70690;BME280;58267;51.156;17.044;2023-05-23T06:13:59;99859.61;;;20.94;31.61
70690;BME280;58267;51.156;17.044;2023-05-23T06:16:24;99862.05;;;21.15;31.55
70690;BME280;58267;51.156;17.044;2023-05-23T06:18:50;99858.25;;;21.06;31.41
70690;BME280;58267;51.156;17.044;2023-05-23T06:21:15;99858.16;;;21.17;31.19
70690;BME280;58267;51.156;17.044;2023-05-23T06:23:41;99860.49;;;21.31;30.82
70690;BME280;58267;51.156;17.044;2023-05-23T06:26:07;99860.34;;;21.01;30.42
70690;BME280;58267;51.156;17.044;2023-05-23T06:28:33;99859.50;;;21.37;30.03
70690;BME280;58267;51.156;17.044;2023-05-23T06:30:59;99861.58;;;21.65;30.16
70690;BME280;58267;51.156;17.044;2023-05-23T06:33:23;99862.37;;;21.44;29.93
70690;BME280;58267;51.156;17.044;2023-05-23T06:35:48;99864.51;;;21.43;29.96
70690;BME280;58267;51.156;17.044;2023-05-23T06:38:14;99865.68;;;21.61;29.75
70690;BME280;58267;51.156;17.044;2023-05-23T06:40:40;99867.13;;;21.75;29.60
70690;BME280;58267;51.156;17.044;2023-05-23T06:43:06;99864.55;;;21.89;29.63
70690;BME280;58267;51.156;17.044;2023-05-23T06:45:30;99859.10;;;22.19;29.31
70690;BME280;58267;51.156;17.044;2023-05-23T06:47:56;99857.20;;;21.75;29.62
70690;BME280;58267;51.156;17.044;2023-05-23T06:50:21;99855.67;;;21.77;29.52
70690;BME280;58267;51.156;17.044;2023-05-23T06:52:47;99856.41;;;21.89;29.45
70690;BME280;58267;51.156;17.044;2023-05-23T06:55:12;99855.17;;;22.29;29.31
70690;BME280;58267;51.156;17.044;2023-05-23T06:57:38;99851.08;;;21.88;29.38
70690;BME280;58267;51.156;17.044;2023-05-23T07:00:05;99850.61;;;22.06;28.96
70690;BME280;58267;51.156;17.044;2023-05-23T07:02:29;99854.52;;;22.54;29.01
70690;BME280;58267;51.156;17.044;2023-05-23T07:04:54;99852.57;;;22.34;28.94
70690;BME280;58267;51.156;17.044;2023-05-23T07:07:20;99847.61;;;22.28;28.89
70690;BME280;58267;51.156;17.044;2023-05-23T07:09:45;99843.46;;;22.38;28.69
70690;BME280;58267;51.156;17.044;2023-05-23T07:12:11;99842.72;;;22.53;28.74
70690;BME280;58267;51.156;17.044;2023-05-23T07:14:37;99837.43;;;22.20;29.67
70690;BME280;58267;51.156;17.044;2023-05-23T07:17:02;99833.15;;;22.21;29.58
70690;BME280;58267;51.156;17.044;2023-05-23T07:19:28;99828.10;;;22.14;29.67
70690;BME280;58267;51.156;17.044;2023-05-23T07:21:54;99824.82;;;22.60;29.35
70690;BME280;58267;51.156;17.044;2023-05-23T07:24:19;99820.96;;;22.71;29.13
70690;BME280;58267;51.156;17.044;2023-05-23T07:26:44;99820.02;;;22.75;28.80
70690;BME280;58267;51.156;17.044;2023-05-23T07:29:10;99820.05;;;23.00;28.46
70690;BME280;58267;51.156;17.044;2023-05-23T07:31:35;99816.45;;;22.95;28.79
70690;BME280;58267;51.156;17.044;2023-05-23T07:34:01;99817.26;;;21.96;29.99
70690;BME280;58267;51.156;17.044;2023-05-23T07:36:26;99812.17;;;22.50;29.05
70690;BME280;58267;51.156;17.044;2023-05-23T07:38:51;99810.52;;;22.72;29.46
70690;BME280;58267;51.156;17.044;2023-05-23T07:41:17;99805.21;;;22.44;30.22
70690;BME280;58267;51.156;17.044;2023-05-23T07:43:43;99794.70;;;22.51;30.03
70690;BME280;58267;51.156;17.044;2023-05-23T07:46:08;99789.87;;;22.64;30.22
70690;BME280;58267;51.156;17.044;2023-05-23T07:48:34;99790.38;;;22.55;30.09
70690;BME280;58267;51.156;17.044;2023-05-23T07:51:00;99790.71;;;22.73;29.98
70690;BME280;58267;51.156;17.044;2023-05-23T07:53:25;99792.25;;;22.94;29.89
70690;BME280;58267;51.156;17.044;2023-05-23T07:55:51;99790.15;;;23.09;29.28
70690;BME280;58267;51.156;17.044;2023-05-23T07:58:16;99790.37;;;23.16;29.17
70690;BME280;58267;51.156;17.044;2023-05-23T08:00:43;99796.32;;;22.52;29.46
70690;BME280;58267;51.156;17.044;2023-05-23T08:03:08;99799.68;;;22.97;28.85
70690;BME280;58267;51.156;17.044;2023-05-23T08:05:33;99806.61;;;23.50;28.49
70690;BME280;58267;51.156;17.044;2023-05-23T08:07:59;99808.18;;;23.64;28.22
70690;BME280;58267;51.156;17.044;2023-05-23T08:10:25;99808.37;;;23.93;28.34
70690;BME280;58267;51.156;17.044;2023-05-23T08:12:50;99809.36;;;23.87;27.61
70690;BME280;58267;51.156;17.044;2023-05-23T08:15:16;99808.20;;;24.18;27.46
70690;BME280;58267;51.156;17.044;2023-05-23T08:17:41;99812.24;;;24.36;27.32
70690;BME280;58267;51.156;17.044;2023-05-23T08:20:08;99815.94;;;24.75;27.29
70690;BME280;58267;51.156;17.044;2023-05-23T08:22:33;99823.20;;;24.24;27.23
70690;BME280;58267;51.156;17.044;2023-05-23T08:24:59;99828.67;;;24.80;27.24
70690;BME280;58267;51.156;17.044;2023-05-23T08:27:24;99831.67;;;24.44;26.17
70690;BME280;58267;51.156;17.044;2023-05-23T08:29:50;99835.24;;;23.74;26.06
70690;BME280;58267;51.156;17.044;2023-05-23T08:32:15;99837.71;;;23.84;26.30
70690;BME280;58267;51.156;17.044;2023-05-23T08:34:41;99836.85;;;23.97;26.66
70690;BME280;58267;51.156;17.044;2023-05-23T08:37:06;99834.06;;;23.88;26.38
70690;BME280;58267;51.156;17.044;2023-05-23T08:39:31;99834.20;;;23.61;26.67
70690;BME280;58267;51.156;17.044;2023-05-23T08:41:56;99835.73;;;23.81;26.90
70690;BME280;58267;51.156;17.044;2023-05-23T08:44:22;99836.26;;;23.73;26.62
70690;BME280;58267;51.156;17.044;2023-05-23T08:46:49;99831.79;;;23.80;26.06
70690;BME280;58267;51.156;17.044;2023-05-23T08:49:14;99829.59;;;23.27;26.02
70690;BME280;58267;51.156;17.044;2023-05-23T08:51:42;99831.54;;;23.99;25.88
70690;BME280;58267;51.156;17.044;2023-05-23T08:54:05;99832.61;;;23.53;26.21
70690;BME280;58267;51.156;17.044;2023-05-23T08:56:30;99834.77;;;23.81;26.40
70690;BME280;58267;51.156;17.044;2023-05-23T08:58:57;99835.39;;;24.18;26.07
70690;BME280;58267;51.156;17.044;2023-05-23T09:01:23;99836.54;;;24.22;25.84
70690;BME280;58267;51.156;17.044;2023-05-23T09:03:47;99835.07;;;24.04;25.95
70690;BME280;58267;51.156;17.044;2023-05-23T09:06:13;99837.18;;;24.06;25.78
70690;BME280;58267;51.156;17.044;2023-05-23T09:08:38;99838.28;;;23.74;26.11
70690;BME280;58267;51.156;17.044;2023-05-23T09:11:05;99837.22;;;23.82;26.28
70690;BME280;58267;51.156;17.044;2023-05-23T09:13:29;99833.58;;;23.80;26.10
70690;BME280;58267;51.156;17.044;2023-05-23T09:18:20;99834.41;;;24.66;26.45
70690;BME280;58267;51.156;17.044;2023-05-23T09:20:49;99837.01;;;23.95;26.55
70690;BME280;58267;51.156;17.044;2023-05-23T09:23:15;99843.06;;;23.97;26.92
70690;BME280;58267;51.156;17.044;2023-05-23T09:25:45;99846.16;;;23.53;27.55
70690;BME280;58267;51.156;17.044;2023-05-23T09:28:06;99847.91;;;23.97;28.15
70690;BME280;58267;51.156;17.044;2023-05-23T09:30:33;99847.55;;;24.12;29.08
70690;BME280;58267;51.156;17.044;2023-05-23T09:32:58;99851.18;;;23.88;29.16
70690;BME280;58267;51.156;17.044;2023-05-23T09:35:22;99851.91;;;23.87;29.41
70690;BME280;58267;51.156;17.044;2023-05-23T09:37:47;99853.98;;;23.87;29.60
70690;BME280;58267;51.156;17.044;2023-05-23T09:40:13;99850.04;;;23.68;30.08
70690;BME280;58267;51.156;17.044;2023-05-23T09:42:41;99849.04;;;23.63;31.57
70690;BME280;58267;51.156;17.044;2023-05-23T09:45:04;99850.77;;;23.67;32.25
70690;BME280;58267;51.156;17.044;2023-05-23T09:47:28;99854.73;;;23.80;32.39
70690;BME280;58267;51.156;17.044;2023-05-23T09:49:55;99856.82;;;23.53;31.89
70690;BME280;58267;51.156;17.044;2023-05-23T09:52:20;99855.58;;;23.44;32.06
70690;BME280;58267;51.156;17.044;2023-05-23T09:54:45;99857.59;;;23.55;32.01
70690;BME280;58267;51.156;17.044;2023-05-23T09:57:13;99856.64;;;23.22;31.35
70690;BME280;58267;51.156;17.044;2023-05-23T09:59:39;99852.73;;;23.35;31.38
70690;BME280;58267;51.156;17.044;2023-05-23T10:02:02;99853.60;;;23.18;31.43
70690;BME280;58267;51.156;17.044;2023-05-23T10:04:30;99854.28;;;23.64;31.72
70690;BME280;58267;51.156;17.044;2023-05-23T10:06:57;99853.81;;;23.46;31.84
70690;BME280;58267;51.156;17.044;2023-05-23T10:09:21;99860.08;;;23.40;32.31
70690;BME280;58267;51.156;17.044;2023-05-23T10:14:09;99858.40;;;23.08;32.71
70690;BME280;58267;51.156;17.044;2023-05-23T10:16:39;99855.01;;;22.91;32.61
70690;BME280;58267;51.156;17.044;2023-05-23T10:19:05;99855.12;;;23.04;31.62
70690;BME280;58267;51.156;17.044;2023-05-23T10:21:30;99855.85;;;22.79;32.23
70690;BME280;58267;51.156;17.044;2023-05-23T10:23:51;99857.21;;;23.30;32.70
70690;BME280;58267;51.156;17.044;2023-05-23T10:26:17;99860.18;;;23.20;32.79
70690;BME280;58267;51.156;17.044;2023-05-23T10:28:43;99860.28;;;23.18;31.82
70690;BME280;58267;51.156;17.044;2023-05-23T10:31:07;99860.53;;;23.18;31.69
70690;BME280;58267;51.156;17.044;2023-05-23T10:33:37;99860.67;;;23.47;31.68
70690;BME280;58267;51.156;17.044;2023-05-23T10:36:03;99862.48;;;23.49;31.93
70690;BME280;58267;51.156;17.044;2023-05-23T10:38:30;99867.41;;;23.32;32.15
70690;BME280;58267;51.156;17.044;2023-05-23T10:40:54;99863.96;;;23.35;32.08
70690;BME280;58267;51.156;17.044;2023-05-23T10:43:19;99864.99;;;23.38;32.13
70690;BME280;58267;51.156;17.044;2023-05-23T10:45:41;99862.63;;;23.46;32.52
70690;BME280;58267;51.156;17.044;2023-05-23T10:50:32;99858.26;;;23.82;32.30
70690;BME280;58267;51.156;17.044;2023-05-23T10:52:56;99859.49;;;23.72;31.83
70690;BME280;58267;51.156;17.044;2023-05-23T10:55:21;99856.45;;;23.99;31.88
70690;BME280;58267;51.156;17.044;2023-05-23T10:57:46;99855.71;;;23.72;31.73
70690;BME280;58267;51.156;17.044;2023-05-23T11:00:13;99854.53;;;24.08;31.62
70690;BME280;58267;51.156;17.044;2023-05-23T11:02:37;99853.81;;;24.14;31.70
70690;BME280;58267;51.156;17.044;2023-05-23T11:07:28;99852.00;;;23.88;31.65
70690;BME280;58267;51.156;17.044;2023-05-23T11:14:52;99847.19;;;24.38;31.12
70690;BME280;58267;51.156;17.044;2023-05-23T11:17:14;99849.63;;;24.81;30.15
70690;BME280;58267;51.156;17.044;2023-05-23T11:19:34;99844.52;;;24.72;29.88
70690;BME280;58267;51.156;17.044;2023-05-23T11:22:01;99843.44;;;24.92;29.67
70690;BME280;58267;51.156;17.044;2023-05-23T11:26:54;99843.57;;;24.92;30.79
70690;BME280;58267;51.156;17.044;2023-05-23T11:29:18;99839.59;;;25.15;30.40
70690;BME280;58267;51.156;17.044;2023-05-23T11:31:43;99839.03;;;25.28;30.68
70690;BME280;58267;51.156;17.044;2023-05-23T11:34:11;99835.91;;;25.28;30.67
70690;BME280;58267;51.156;17.044;2023-05-23T11:36:34;99835.02;;;25.49;30.39
70690;BME280;58267;51.156;17.044;2023-05-23T11:39:02;99836.07;;;25.28;30.92
70690;BME280;58267;51.156;17.044;2023-05-23T11:41:26;99831.84;;;25.61;30.51
70690;BME280;58267;51.156;17.044;2023-05-23T11:43:53;99830.64;;;25.21;30.67
70690;BME280;58267;51.156;17.044;2023-05-23T11:46:18;99833.92;;;25.71;30.22
70690;BME280;58267;51.156;17.044;2023-05-23T11:48:44;99832.54;;;25.76;30.08
70690;BME280;58267;51.156;17.044;2023-05-23T11:51:09;99832.15;;;26.49;29.90
70690;BME280;58267;51.156;17.044;2023-05-23T11:53:34;99829.03;;;26.19;29.34
70690;BME280;58267;51.156;17.044;2023-05-23T11:56:01;99826.67;;;26.20;29.43
70690;BME280;58267;51.156;17.044;2023-05-23T11:58:27;99829.67;;;26.01;29.71
70690;BME280;58267;51.156;17.044;2023-05-23T12:00:50;99828.63;;;25.78;29.57
70690;BME280;58267;51.156;17.044;2023-05-23T12:03:15;99829.41;;;25.92;29.52
70690;BME280;58267;51.156;17.044;2023-05-23T12:05:42;99829.52;;;25.48;30.25
70690;BME280;58267;51.156;17.044;2023-05-23T12:08:06;99832.30;;;25.50;30.73
70690;BME280;58267;51.156;17.044;2023-05-23T12:10:31;99837.39;;;25.83;30.35
70690;BME280;58267;51.156;17.044;2023-05-23T12:12:57;99838.61;;;25.32;30.65
70690;BME280;58267;51.156;17.044;2023-05-23T12:15:25;99838.58;;;25.48;30.52
70690;BME280;58267;51.156;17.044;2023-05-23T12:17:49;99839.04;;;25.19;30.66
70690;BME280;58267;51.156;17.044;2023-05-23T12:20:15;99837.78;;;25.30;30.63
70690;BME280;58267;51.156;17.044;2023-05-23T12:22:41;99836.04;;;24.85;30.34
70690;BME280;58267;51.156;17.044;2023-05-23T12:25:08;99828.95;;;24.96;30.18
70690;BME280;58267;51.156;17.044;2023-05-23T12:27:33;99828.74;;;24.89;30.42
70690;BME280;58267;51.156;17.044;2023-05-23T12:30:04;99828.77;;;24.69;30.41
70690;BME280;58267;51.156;17.044;2023-05-23T12:32:24;99830.49;;;24.86;30.28
70690;BME280;58267;51.156;17.044;2023-05-23T12:34:48;99831.83;;;25.29;29.99
70690;BME280;58267;51.156;17.044;2023-05-23T12:37:13;99830.74;;;25.31;29.83
70690;BME280;58267;51.156;17.044;2023-05-23T12:39:38;99829.73;;;25.01;29.89
70690;BME280;58267;51.156;17.044;2023-05-23T12:42:08;99830.50;;;25.44;30.18
70690;BME280;58267;51.156;17.044;2023-05-23T12:44:29;99832.52;;;25.15;29.93
70690;BME280;58267;51.156;17.044;2023-05-23T12:46:54;99830.73;;;25.79;29.66
70690;BME280;58267;51.156;17.044;2023-05-23T12:49:20;99829.36;;;25.88;29.61
70690;BME280;58267;51.156;17.044;2023-05-23T12:51:45;99827.34;;;26.00;30.37
70690;BME280;58267;51.156;17.044;2023-05-23T12:54:10;99823.88;;;26.17;30.36